Airfield :
LOGIN :

Register | Disclaimer

   EN    FR    IT 

 










Legend :    VFR   Marginal VFR   IFR   Intensive IFR   Very Intensive IFR
Visi :
Ceiling :
>= 8 km
>= 3000ft
5 to 8 km
1000 to 3000 ft
1500m to 5 km
500 to 1000 ft
800 to 1500m
200 to 500 ft
< 800m
< 200 ft
Symbols :   Thunderstorms  Fog  Heavy snow  Heavy precipitations  Wind > 20 kt
SIGMETs :     Misc.  Thunderstorms  Icing  Turbulence  Mountain Waves  Volcanic Ashes







- Airport Elevation : 162 ft
- IATA code : BOD
- Download approach charts


LFBD - Bordeaux / Merignac

CURRENT METAR :
  • 261130Z AUTO 10009KT 060V140 CAVOK 31/17 Q1016 NOSIG

EXPIRED METARs :
  • 261100Z AUTO 11009KT 070V130 CAVOK 30/18 Q1016 NOSIG
  • 261030Z AUTO 09011KT CAVOK 29/18 Q1016 NOSIG
  • 261000Z AUTO 09007KT 050V120 CAVOK 28/19 Q1016 NOSIG
  • 260930Z AUTO 11008KT 070V150 CAVOK 28/19 Q1016 NOSIG
  • 260900Z AUTO 12009KT CAVOK 26/18 Q1016 NOSIG

TAF TAF LFBD
Valid from the 26 at 12:00 until the 27 at 18:00 UTC


261100Z 2612/2718 11010KT CAVOK TX39/2616Z TN21/2705Z
PROB30 2704/2707 BKN003
ATIS : +33 5 57 92 81 04
No reported NOTAMs for that airfield.
1 SIGMET reported for the Bordeaux FIR (LFBB) :
 
Severe mountain waves
LFBB SIGMET 3 VALID 261000/261400 LFPW
LFBB BORDEAUX FIR/UIR SEV MTW FCST WI N4215 E00200 - N4300 W00115 - N4315 W00100 - N4245 E00200 - N4215 E00200 SFC/FL200 STNR NC=



MET'MAP, your aeronautical weather chart ! - Copyright ORBIFLY December 2007 - Disclaimer

ORBIFLY MET'MAP TEAM :

Programming & Development : Alexandra Zaïnal
Concept & Development : Baudouin d'Aumeries
Co-Development & Prog : Marc-Olivier Méhu
Technical & hardware support : Manuel Goepfert

Contact : metmap@orbifly.com




SOURCES & CREDITS :

   NOAA